sensor_id;sensor_type;location;lat;lon;timestamp;pressure;altitude;pressure_sealevel;temperature;humidity
9839;BME280;4958;48.150;11.506;2022-10-30T00:00:24;96089.88;;;17.10;70.95
9839;BME280;4958;48.150;11.506;2022-10-30T00:02:52;96090.66;;;17.17;70.51
9839;BME280;4958;48.150;11.506;2022-10-30T00:05:19;96088.03;;;17.17;70.62
9839;BME280;4958;48.150;11.506;2022-10-30T00:07:45;96084.25;;;17.13;70.61
9839;BME280;4958;48.150;11.506;2022-10-30T00:10:12;96086.50;;;17.10;70.43
9839;BME280;4958;48.150;11.506;2022-10-30T00:12:39;96085.69;;;17.03;70.71
9839;BME280;4958;48.150;11.506;2022-10-30T00:15:06;96077.28;;;17.07;70.37
9839;BME280;4958;48.150;11.506;2022-10-30T00:17:33;96081.28;;;17.10;70.24
9839;BME280;4958;48.150;11.506;2022-10-30T00:20:01;96087.50;;;17.02;70.68
9839;BME280;4958;48.150;11.506;2022-10-30T00:22:28;96084.69;;;17.04;70.29
9839;BME280;4958;48.150;11.506;2022-10-30T00:24:54;96086.50;;;17.10;70.13
9839;BME280;4958;48.150;11.506;2022-10-30T00:27:21;96093.28;;;17.04;70.28
9839;BME280;4958;48.150;11.506;2022-10-30T00:29:47;96091.69;;;17.10;69.95
9839;BME280;4958;48.150;11.506;2022-10-30T00:32:14;96091.09;;;17.08;69.84
9839;BME280;4958;48.150;11.506;2022-10-30T00:34:40;96088.69;;;17.00;70.41
9839;BME280;4958;48.150;11.506;2022-10-30T00:37:08;96084.75;;;16.71;71.35
9839;BME280;4958;48.150;11.506;2022-10-30T00:39:35;96083.56;;;16.53;72.51
9839;BME280;4958;48.150;11.506;2022-10-30T00:42:01;96085.16;;;16.54;71.74
9839;BME280;4958;48.150;11.506;2022-10-30T00:44:37;96089.72;;;16.59;72.03
9839;BME280;4958;48.150;11.506;2022-10-30T00:47:10;96088.75;;;16.27;73.71
9839;BME280;4958;48.150;11.506;2022-10-30T00:49:45;96086.31;;;15.99;74.88
9839;BME280;4958;48.150;11.506;2022-10-30T00:52:14;96079.91;;;16.02;74.70
9839;BME280;4958;48.150;11.506;2022-10-30T00:54:40;96072.34;;;16.07;74.03
9839;BME280;4958;48.150;11.506;2022-10-30T00:57:08;96076.72;;;16.19;73.97
9839;BME280;4958;48.150;11.506;2022-10-30T00:59:35;96075.31;;;15.97;75.19
9839;BME280;4958;48.150;11.506;2022-10-30T01:02:03;96077.91;;;15.77;76.05
9839;BME280;4958;48.150;11.506;2022-10-30T01:04:31;96080.88;;;15.81;75.52
9839;BME280;4958;48.150;11.506;2022-10-30T01:07:06;96085.13;;;15.95;75.25
9839;BME280;4958;48.150;11.506;2022-10-30T01:09:36;96089.53;;;16.08;74.62
9839;BME280;4958;48.150;11.506;2022-10-30T01:12:03;96091.13;;;16.22;73.94
9839;BME280;4958;48.150;11.506;2022-10-30T01:14:30;96081.94;;;16.26;73.90
9839;BME280;4958;48.150;11.506;2022-10-30T01:17:09;96085.56;;;16.32;73.34
9839;BME280;4958;48.150;11.506;2022-10-30T01:19:41;96081.97;;;16.33;72.90
9839;BME280;4958;48.150;11.506;2022-10-30T01:22:21;96086.16;;;16.34;73.27
9839;BME280;4958;48.150;11.506;2022-10-30T01:25:00;96088.16;;;16.32;73.20
9839;BME280;4958;48.150;11.506;2022-10-30T01:27:36;96088.56;;;16.35;72.16
9839;BME280;4958;48.150;11.506;2022-10-30T01:30:12;96089.75;;;16.26;72.31
9839;BME280;4958;48.150;11.506;2022-10-30T01:32:52;96093.31;;;16.18;72.89
9839;BME280;4958;48.150;11.506;2022-10-30T01:35:24;96088.75;;;16.27;72.23
9839;BME280;4958;48.150;11.506;2022-10-30T01:37:57;96098.13;;;16.15;72.49
9839;BME280;4958;48.150;11.506;2022-10-30T01:40:26;96096.53;;;16.14;71.97
9839;BME280;4958;48.150;11.506;2022-10-30T01:42:54;96094.13;;;16.12;72.00
9839;BME280;4958;48.150;11.506;2022-10-30T01:45:26;96099.72;;;16.09;72.14
9839;BME280;4958;48.150;11.506;2022-10-30T01:48:12;96099.69;;;16.03;71.69
9839;BME280;4958;48.150;11.506;2022-10-30T01:50:47;96100.72;;;15.95;71.59
9839;BME280;4958;48.150;11.506;2022-10-30T01:53:32;96100.09;;;15.93;71.58
9839;BME280;4958;48.150;11.506;2022-10-30T01:56:14;96092.88;;;15.88;72.13
9839;BME280;4958;48.150;11.506;2022-10-30T01:58:49;96097.28;;;15.88;72.39
9839;BME280;4958;48.150;11.506;2022-10-30T02:01:17;96096.69;;;15.86;72.33
9839;BME280;4958;48.150;11.506;2022-10-30T02:03:45;96095.28;;;15.90;72.39
9839;BME280;4958;48.150;11.506;2022-10-30T02:06:12;96092.28;;;15.86;72.16
9839;BME280;4958;48.150;11.506;2022-10-30T02:08:38;96092.09;;;15.88;71.89
9839;BME280;4958;48.150;11.506;2022-10-30T02:11:07;96092.25;;;15.80;72.29
9839;BME280;4958;48.150;11.506;2022-10-30T02:13:35;96097.44;;;15.80;72.34
9839;BME280;4958;48.150;11.506;2022-10-30T02:16:02;96095.28;;;15.77;72.39
9839;BME280;4958;48.150;11.506;2022-10-30T02:18:28;96088.28;;;15.84;72.06
9839;BME280;4958;48.150;11.506;2022-10-30T02:20:56;96090.47;;;15.80;72.08
9839;BME280;4958;48.150;11.506;2022-10-30T02:23:23;96083.66;;;15.79;72.24
9839;BME280;4958;48.150;11.506;2022-10-30T02:25:49;96086.69;;;15.83;72.65
9839;BME280;4958;48.150;11.506;2022-10-30T02:28:16;96081.91;;;15.86;72.24
9839;BME280;4958;48.150;11.506;2022-10-30T02:30:42;96084.28;;;15.88;72.67
9839;BME280;4958;48.150;11.506;2022-10-30T02:33:09;96082.91;;;15.92;72.57
9839;BME280;4958;48.150;11.506;2022-10-30T02:35:35;96082.50;;;16.02;72.48
9839;BME280;4958;48.150;11.506;2022-10-30T02:38:03;96074.94;;;16.07;72.33
9839;BME280;4958;48.150;11.506;2022-10-30T02:40:30;96079.53;;;16.11;71.99
9839;BME280;4958;48.150;11.506;2022-10-30T02:42:57;96075.56;;;16.15;71.84
9839;BME280;4958;48.150;11.506;2022-10-30T02:45:23;96081.53;;;16.09;71.89
9839;BME280;4958;48.150;11.506;2022-10-30T02:47:50;96081.13;;;16.06;72.11
9839;BME280;4958;48.150;11.506;2022-10-30T02:50:16;96076.13;;;16.04;71.85
9839;BME280;4958;48.150;11.506;2022-10-30T02:52:43;96085.31;;;16.00;71.67
9839;BME280;4958;48.150;11.506;2022-10-30T02:55:11;96080.13;;;15.94;71.94
9839;BME280;4958;48.150;11.506;2022-10-30T02:57:37;96078.50;;;15.86;72.44
9839;BME280;4958;48.150;11.506;2022-10-30T03:00:05;96079.31;;;15.86;71.92
9839;BME280;4958;48.150;11.506;2022-10-30T03:02:32;96071.09;;;15.76;72.65
9839;BME280;4958;48.150;11.506;2022-10-30T03:04:58;96073.91;;;15.75;72.98
9839;BME280;4958;48.150;11.506;2022-10-30T03:07:25;96078.47;;;15.73;72.91
9839;BME280;4958;48.150;11.506;2022-10-30T03:09:51;96079.47;;;15.78;72.87
9839;BME280;4958;48.150;11.506;2022-10-30T03:12:20;96080.69;;;15.82;73.10
9839;BME280;4958;48.150;11.506;2022-10-30T03:14:47;96079.28;;;15.80;72.76
9839;BME280;4958;48.150;11.506;2022-10-30T03:17:13;96079.47;;;15.72;73.53
9839;BME280;4958;48.150;11.506;2022-10-30T03:19:40;96078.28;;;15.74;73.02
9839;BME280;4958;48.150;11.506;2022-10-30T03:22:06;96072.28;;;15.74;73.17
9839;BME280;4958;48.150;11.506;2022-10-30T03:24:33;96079.84;;;15.69;73.15
9839;BME280;4958;48.150;11.506;2022-10-30T03:26:59;96072.25;;;15.67;73.30
9839;BME280;4958;48.150;11.506;2022-10-30T03:29:27;96067.50;;;15.71;72.80
9839;BME280;4958;48.150;11.506;2022-10-30T03:31:54;96072.47;;;15.72;72.65
9839;BME280;4958;48.150;11.506;2022-10-30T03:34:20;96065.31;;;15.74;72.53
9839;BME280;4958;48.150;11.506;2022-10-30T03:36:47;96061.53;;;15.77;72.33
9839;BME280;4958;48.150;11.506;2022-10-30T03:39:13;96062.09;;;15.79;72.18
9839;BME280;4958;48.150;11.506;2022-10-30T03:41:40;96056.09;;;15.78;71.98
9839;BME280;4958;48.150;11.506;2022-10-30T03:44:07;96061.28;;;15.72;72.31
9839;BME280;4958;48.150;11.506;2022-10-30T03:46:35;96058.28;;;15.68;72.39
9839;BME280;4958;48.150;11.506;2022-10-30T03:49:03;96053.50;;;15.59;72.75
9839;BME280;4958;48.150;11.506;2022-10-30T03:51:29;96059.25;;;15.61;72.76
9839;BME280;4958;48.150;11.506;2022-10-30T03:53:56;96055.84;;;15.60;72.90
9839;BME280;4958;48.150;11.506;2022-10-30T03:56:22;96066.59;;;15.50;72.69
9839;BME280;4958;48.150;11.506;2022-10-30T03:58:49;96066.72;;;15.29;73.64
9839;BME280;4958;48.150;11.506;2022-10-30T04:01:15;96068.75;;;15.34;73.30
9839;BME280;4958;48.150;11.506;2022-10-30T04:03:43;96077.34;;;15.41;73.30
9839;BME280;4958;48.150;11.506;2022-10-30T04:06:10;96072.75;;;15.43;72.98
9839;BME280;4958;48.150;11.506;2022-10-30T04:08:36;96079.34;;;15.45;72.94
9839;BME280;4958;48.150;11.506;2022-10-30T04:11:03;96081.94;;;15.45;72.73
9839;BME280;4958;48.150;11.506;2022-10-30T04:13:30;96074.53;;;15.36;72.82
9839;BME280;4958;48.150;11.506;2022-10-30T04:15:56;96076.50;;;15.27;73.43
9839;BME280;4958;48.150;11.506;2022-10-30T04:18:23;96078.19;;;15.00;73.87
9839;BME280;4958;48.150;11.506;2022-10-30T04:20:52;96077.72;;;14.90;74.78
9839;BME280;4958;48.150;11.506;2022-10-30T04:23:19;96074.94;;;14.92;74.65
9839;BME280;4958;48.150;11.506;2022-10-30T04:25:46;96080.34;;;15.03;74.28
9839;BME280;4958;48.150;11.506;2022-10-30T04:28:13;96075.41;;;15.08;73.99
9839;BME280;4958;48.150;11.506;2022-10-30T04:30:40;96070.59;;;14.99;74.05
9839;BME280;4958;48.150;11.506;2022-10-30T04:33:10;96075.78;;;15.05;73.75
9839;BME280;4958;48.150;11.506;2022-10-30T04:35:37;96078.19;;;15.07;73.87
9839;BME280;4958;48.150;11.506;2022-10-30T04:38:07;96072.84;;;15.15;73.35
9839;BME280;4958;48.150;11.506;2022-10-30T04:40:35;96078.84;;;15.22;73.02
9839;BME280;4958;48.150;11.506;2022-10-30T04:43:03;96075.88;;;15.18;72.93
9839;BME280;4958;48.150;11.506;2022-10-30T04:45:30;96069.84;;;15.11;73.03
9839;BME280;4958;48.150;11.506;2022-10-30T04:48:01;96074.78;;;15.00;73.71
9839;BME280;4958;48.150;11.506;2022-10-30T04:50:28;96075.72;;;14.92;73.76
9839;BME280;4958;48.150;11.506;2022-10-30T04:52:58;96068.09;;;14.84;74.25
9839;BME280;4958;48.150;11.506;2022-10-30T04:55:26;96065.91;;;14.88;73.92
9839;BME280;4958;48.150;11.506;2022-10-30T04:57:54;96073.75;;;14.66;74.63
9839;BME280;4958;48.150;11.506;2022-10-30T05:00:21;96061.28;;;14.76;74.59
9839;BME280;4958;48.150;11.506;2022-10-30T05:02:48;96058.25;;;14.73;74.87
9839;BME280;4958;48.150;11.506;2022-10-30T05:05:14;96059.13;;;14.80;74.57
9839;BME280;4958;48.150;11.506;2022-10-30T05:07:41;96057.75;;;14.91;74.13
9839;BME280;4958;48.150;11.506;2022-10-30T05:10:10;96064.41;;;15.00;73.73
9839;BME280;4958;48.150;11.506;2022-10-30T05:12:39;96049.25;;;15.03;73.17
9839;BME280;4958;48.150;11.506;2022-10-30T05:15:06;96048.28;;;15.11;73.18
9839;BME280;4958;48.150;11.506;2022-10-30T05:17:33;96043.53;;;15.14;72.88
9839;BME280;4958;48.150;11.506;2022-10-30T05:19:59;96045.72;;;15.17;72.49
9839;BME280;4958;48.150;11.506;2022-10-30T05:22:25;96041.53;;;15.23;72.01
9839;BME280;4958;48.150;11.506;2022-10-30T05:24:52;96040.59;;;15.31;71.64
9839;BME280;4958;48.150;11.506;2022-10-30T05:27:18;96038.22;;;15.36;71.00
9839;BME280;4958;48.150;11.506;2022-10-30T05:29:49;96036.81;;;15.40;70.88
9839;BME280;4958;48.150;11.506;2022-10-30T05:32:15;96042.78;;;15.40;70.81
9839;BME280;4958;48.150;11.506;2022-10-30T05:34:41;96044.19;;;15.43;70.71
9839;BME280;4958;48.150;11.506;2022-10-30T05:37:08;96041.41;;;15.44;70.40
9839;BME280;4958;48.150;11.506;2022-10-30T05:39:34;96043.03;;;15.45;70.27
9839;BME280;4958;48.150;11.506;2022-10-30T05:42:01;96050.38;;;15.42;70.37
9839;BME280;4958;48.150;11.506;2022-10-30T05:44:27;96048.78;;;15.41;70.45
9839;BME280;4958;48.150;11.506;2022-10-30T05:46:55;96052.00;;;15.43;70.36
9839;BME280;4958;48.150;11.506;2022-10-30T05:49:21;96049.00;;;15.39;70.74
9839;BME280;4958;48.150;11.506;2022-10-30T05:51:48;96051.38;;;15.34;70.15
9839;BME280;4958;48.150;11.506;2022-10-30T05:54:14;96041.78;;;15.28;70.21
9839;BME280;4958;48.150;11.506;2022-10-30T05:56:41;96045.75;;;15.24;70.27
9839;BME280;4958;48.150;11.506;2022-10-30T05:59:07;96040.34;;;15.26;70.41
9839;BME280;4958;48.150;11.506;2022-10-30T06:01:34;96038.75;;;15.25;70.20
9839;BME280;4958;48.150;11.506;2022-10-30T06:04:02;96042.38;;;15.30;69.34
9839;BME280;4958;48.150;11.506;2022-10-30T06:06:28;96039.22;;;15.35;69.16
9839;BME280;4958;48.150;11.506;2022-10-30T06:08:55;96037.59;;;15.40;68.77
9839;BME280;4958;48.150;11.506;2022-10-30T06:11:21;96035.22;;;15.45;68.62
9839;BME280;4958;48.150;11.506;2022-10-30T06:13:48;96042.22;;;15.45;68.95
9839;BME280;4958;48.150;11.506;2022-10-30T06:16:14;96045.84;;;15.50;69.00
9839;BME280;4958;48.150;11.506;2022-10-30T06:18:41;96048.59;;;15.42;69.18
9839;BME280;4958;48.150;11.506;2022-10-30T06:21:08;96042.59;;;15.42;69.01
9839;BME280;4958;48.150;11.506;2022-10-30T06:23:35;96035.63;;;15.42;69.31
9839;BME280;4958;48.150;11.506;2022-10-30T06:26:01;96042.78;;;15.40;69.29
9839;BME280;4958;48.150;11.506;2022-10-30T06:28:28;96041.44;;;15.51;69.05
9839;BME280;4958;48.150;11.506;2022-10-30T06:30:54;96045.09;;;15.63;68.80
9839;BME280;4958;48.150;11.506;2022-10-30T06:33:21;96044.72;;;15.73;67.49
9839;BME280;4958;48.150;11.506;2022-10-30T06:35:48;96040.16;;;15.88;66.54
9839;BME280;4958;48.150;11.506;2022-10-30T06:38:16;96034.38;;;16.06;66.14
9839;BME280;4958;48.150;11.506;2022-10-30T06:40:42;96049.34;;;16.37;70.03
9839;BME280;4958;48.150;11.506;2022-10-30T06:43:09;96043.75;;;16.66;68.33
9839;BME280;4958;48.150;11.506;2022-10-30T06:45:35;96047.69;;;16.95;69.26
9839;BME280;4958;48.150;11.506;2022-10-30T06:48:02;96046.59;;;17.22;66.52
9839;BME280;4958;48.150;11.506;2022-10-30T06:50:28;96038.09;;;17.47;65.33
9839;BME280;4958;48.150;11.506;2022-10-30T06:52:55;96044.34;;;17.77;65.45
9839;BME280;4958;48.150;11.506;2022-10-30T06:55:24;96041.88;;;18.14;64.15
9839;BME280;4958;48.150;11.506;2022-10-30T06:57:54;96036.41;;;18.47;61.23
9839;BME280;4958;48.150;11.506;2022-10-30T07:00:21;96037.13;;;18.79;60.35
9839;BME280;4958;48.150;11.506;2022-10-30T07:02:57;96039.31;;;19.18;60.42
9839;BME280;4958;48.150;11.506;2022-10-30T07:05:24;96043.56;;;19.31;59.24
9839;BME280;4958;48.150;11.506;2022-10-30T07:07:50;96038.41;;;19.61;58.25
9839;BME280;4958;48.150;11.506;2022-10-30T07:10:17;96042.16;;;19.95;57.80
9839;BME280;4958;48.150;11.506;2022-10-30T07:12:51;96042.06;;;20.25;56.43
9839;BME280;4958;48.150;11.506;2022-10-30T07:15:18;96044.19;;;20.46;55.65
9839;BME280;4958;48.150;11.506;2022-10-30T07:17:51;96043.81;;;20.43;55.71
9839;BME280;4958;48.150;11.506;2022-10-30T07:20:17;96045.75;;;20.35;55.20
9839;BME280;4958;48.150;11.506;2022-10-30T07:22:44;96055.50;;;20.17;55.04
9839;BME280;4958;48.150;11.506;2022-10-30T07:25:10;96055.78;;;19.97;55.09
9839;BME280;4958;48.150;11.506;2022-10-30T07:27:40;96051.22;;;19.92;56.25
9839;BME280;4958;48.150;11.506;2022-10-30T07:30:09;96059.09;;;20.04;55.61
9839;BME280;4958;48.150;11.506;2022-10-30T07:32:36;96059.72;;;20.18;54.33
9839;BME280;4958;48.150;11.506;2022-10-30T07:35:17;96054.59;;;20.34;54.20
9839;BME280;4958;48.150;11.506;2022-10-30T07:37:44;96057.13;;;20.41;52.82
9839;BME280;4958;48.150;11.506;2022-10-30T07:40:10;96057.13;;;20.41;51.75
9839;BME280;4958;48.150;11.506;2022-10-30T07:42:37;96062.03;;;20.49;51.16
9839;BME280;4958;48.150;11.506;2022-10-30T07:45:04;96053.97;;;20.62;51.13
9839;BME280;4958;48.150;11.506;2022-10-30T07:47:32;96063.06;;;20.83;50.84
9839;BME280;4958;48.150;11.506;2022-10-30T07:49:58;96054.31;;;20.89;49.56
9839;BME280;4958;48.150;11.506;2022-10-30T07:52:29;96063.72;;;21.02;49.34
9839;BME280;4958;48.150;11.506;2022-10-30T07:54:56;96054.41;;;20.94;49.09
9839;BME280;4958;48.150;11.506;2022-10-30T07:57:22;96063.53;;;20.92;49.58
9839;BME280;4958;48.150;11.506;2022-10-30T07:59:49;96061.69;;;20.81;49.53
9839;BME280;4958;48.150;11.506;2022-10-30T08:02:15;96061.47;;;20.82;50.06
9839;BME280;4958;48.150;11.506;2022-10-30T08:04:43;96071.34;;;20.80;49.99
9839;BME280;4958;48.150;11.506;2022-10-30T08:07:10;96065.47;;;20.96;50.40
9839;BME280;4958;48.150;11.506;2022-10-30T08:09:36;96070.22;;;21.11;50.15
9839;BME280;4958;48.150;11.506;2022-10-30T08:12:03;96061.78;;;21.32;50.32
9839;BME280;4958;48.150;11.506;2022-10-30T08:14:30;96066.13;;;21.55;49.81
9839;BME280;4958;48.150;11.506;2022-10-30T08:16:56;96063.81;;;21.70;49.68
9839;BME280;4958;48.150;11.506;2022-10-30T08:19:23;96063.75;;;21.82;49.58
9839;BME280;4958;48.150;11.506;2022-10-30T08:21:51;96060.41;;;21.87;49.66
9839;BME280;4958;48.150;11.506;2022-10-30T08:24:17;96060.19;;;21.88;49.69
9839;BME280;4958;48.150;11.506;2022-10-30T08:26:43;96054.63;;;21.85;48.00
9839;BME280;4958;48.150;11.506;2022-10-30T08:29:10;96060.41;;;21.87;48.66
9839;BME280;4958;48.150;11.506;2022-10-30T08:31:36;96061.00;;;21.89;47.13
9839;BME280;4958;48.150;11.506;2022-10-30T08:34:03;96054.25;;;21.93;47.68
9839;BME280;4958;48.150;11.506;2022-10-30T08:36:30;96051.94;;;21.96;46.85
9839;BME280;4958;48.150;11.506;2022-10-30T08:38:58;96050.91;;;21.97;46.00
9839;BME280;4958;48.150;11.506;2022-10-30T08:41:24;96060.47;;;22.03;46.91
9839;BME280;4958;48.150;11.506;2022-10-30T08:43:51;96060.91;;;22.12;46.59
9839;BME280;4958;48.150;11.506;2022-10-30T08:46:17;96063.53;;;22.29;47.62
9839;BME280;4958;48.150;11.506;2022-10-30T08:48:44;96067.00;;;22.34;47.12
9839;BME280;4958;48.150;11.506;2022-10-30T08:51:10;96059.88;;;22.30;45.32
9839;BME280;4958;48.150;11.506;2022-10-30T08:53:37;96068.59;;;22.35;46.64
9839;BME280;4958;48.150;11.506;2022-10-30T08:56:05;96060.72;;;22.35;45.42
9839;BME280;4958;48.150;11.506;2022-10-30T08:58:32;96048.16;;;22.37;46.32
9839;BME280;4958;48.150;11.506;2022-10-30T09:00:58;96058.09;;;22.52;46.34
9839;BME280;4958;48.150;11.506;2022-10-30T09:03:24;96048.13;;;22.71;47.11
9839;BME280;4958;48.150;11.506;2022-10-30T09:05:51;96047.75;;;22.79;46.76
9839;BME280;4958;48.150;11.506;2022-10-30T09:08:20;96043.06;;;22.81;44.50
9839;BME280;4958;48.150;11.506;2022-10-30T09:10:53;96048.97;;;22.88;44.06
9839;BME280;4958;48.150;11.506;2022-10-30T09:13:20;96038.97;;;22.90;45.51
9839;BME280;4958;48.150;11.506;2022-10-30T09:15:47;96048.84;;;23.00;45.42
9839;BME280;4958;48.150;11.506;2022-10-30T09:18:13;96054.59;;;23.19;45.59
9839;BME280;4958;48.150;11.506;2022-10-30T09:20:40;96047.44;;;23.36;44.74
9839;BME280;4958;48.150;11.506;2022-10-30T09:23:07;96049.69;;;23.49;44.46
9839;BME280;4958;48.150;11.506;2022-10-30T09:25:34;96049.03;;;23.59;43.33
9839;BME280;4958;48.150;11.506;2022-10-30T09:28:00;96040.84;;;23.55;43.19
9839;BME280;4958;48.150;11.506;2022-10-30T09:30:28;96047.81;;;23.45;43.59
9839;BME280;4958;48.150;11.506;2022-10-30T09:32:55;96041.00;;;23.49;44.38
9839;BME280;4958;48.150;11.506;2022-10-30T09:35:22;96045.91;;;23.40;45.05
9839;BME280;4958;48.150;11.506;2022-10-30T09:37:48;96045.72;;;23.47;43.88
9839;BME280;4958;48.150;11.506;2022-10-30T09:40:20;96044.81;;;23.58;43.47
9839;BME280;4958;48.150;11.506;2022-10-30T09:42:48;96047.06;;;23.71;43.34
9839;BME280;4958;48.150;11.506;2022-10-30T09:45:40;96051.56;;;23.75;42.67
9839;BME280;4958;48.150;11.506;2022-10-30T09:48:31;96045.78;;;23.73;42.96
9839;BME280;4958;48.150;11.506;2022-10-30T09:51:08;96051.50;;;23.70;43.01
9839;BME280;4958;48.150;11.506;2022-10-30T09:53:46;96049.44;;;23.72;44.37
9839;BME280;4958;48.150;11.506;2022-10-30T09:56:20;96048.41;;;23.73;44.05
9839;BME280;4958;48.150;11.506;2022-10-30T09:59:00;96048.06;;;23.65;43.62
9839;BME280;4958;48.150;11.506;2022-10-30T10:01:36;96044.72;;;23.74;44.54
9839;BME280;4958;48.150;11.506;2022-10-30T10:04:18;96046.13;;;23.82;44.33
9839;BME280;4958;48.150;11.506;2022-10-30T10:06:51;96039.91;;;23.93;44.18
9839;BME280;4958;48.150;11.506;2022-10-30T10:09:20;96041.56;;;23.99;43.86
9839;BME280;4958;48.150;11.506;2022-10-30T10:11:51;96043.53;;;24.14;44.01
9839;BME280;4958;48.150;11.506;2022-10-30T10:14:21;96048.03;;;24.19;43.57
9839;BME280;4958;48.150;11.506;2022-10-30T10:16:51;96051.25;;;24.26;44.06
9839;BME280;4958;48.150;11.506;2022-10-30T10:19:20;96049.94;;;24.23;43.78
9839;BME280;4958;48.150;11.506;2022-10-30T10:21:50;96048.94;;;24.29;44.53
9839;BME280;4958;48.150;11.506;2022-10-30T10:24:22;96049.78;;;24.35;44.10
9839;BME280;4958;48.150;11.506;2022-10-30T10:26:55;96044.00;;;24.38;44.10
9839;BME280;4958;48.150;11.506;2022-10-30T10:29:31;96053.50;;;24.44;44.73
9839;BME280;4958;48.150;11.506;2022-10-30T10:32:22;96046.94;;;24.47;44.87
9839;BME280;4958;48.150;11.506;2022-10-30T10:35:04;96046.19;;;24.51;44.36
9839;BME280;4958;48.150;11.506;2022-10-30T10:37:40;96047.28;;;24.55;44.08
9839;BME280;4958;48.150;11.506;2022-10-30T10:40:21;96044.84;;;24.43;43.71
9839;BME280;4958;48.150;11.506;2022-10-30T10:43:05;96046.78;;;24.26;43.01
9839;BME280;4958;48.150;11.506;2022-10-30T10:46:25;96046.94;;;24.15;44.19
9839;BME280;4958;48.150;11.506;2022-10-30T10:48:57;96048.53;;;24.16;43.36
9839;BME280;4958;48.150;11.506;2022-10-30T10:51:30;96040.38;;;24.17;44.24
9839;BME280;4958;48.150;11.506;2022-10-30T10:54:01;96048.13;;;24.24;44.63
9839;BME280;4958;48.150;11.506;2022-10-30T10:56:32;96043.56;;;24.19;43.89
9839;BME280;4958;48.150;11.506;2022-10-30T10:59:02;96047.78;;;24.20;44.05
9839;BME280;4958;48.150;11.506;2022-10-30T11:01:36;96040.69;;;24.21;43.89
9839;BME280;4958;48.150;11.506;2022-10-30T11:04:10;96040.50;;;24.27;44.33
9839;BME280;4958;48.150;11.506;2022-10-30T11:06:42;96034.72;;;24.30;43.30
9839;BME280;4958;48.150;11.506;2022-10-30T11:09:13;96031.34;;;24.35;43.64
9839;BME280;4958;48.150;11.506;2022-10-30T11:11:42;96032.44;;;24.39;44.00
9839;BME280;4958;48.150;11.506;2022-10-30T11:14:13;96029.56;;;24.45;44.06
9839;BME280;4958;48.150;11.506;2022-10-30T11:16:49;96020.38;;;24.48;43.58
9839;BME280;4958;48.150;11.506;2022-10-30T11:19:18;96019.28;;;24.44;43.11
9839;BME280;4958;48.150;11.506;2022-10-30T11:21:48;96025.63;;;24.48;43.74
9839;BME280;4958;48.150;11.506;2022-10-30T11:24:26;96019.63;;;24.53;43.91
9839;BME280;4958;48.150;11.506;2022-10-30T11:26:54;96019.38;;;24.54;43.32
9839;BME280;4958;48.150;11.506;2022-10-30T11:29:22;96016.78;;;24.59;42.54
9839;BME280;4958;48.150;11.506;2022-10-30T11:31:58;96016.25;;;24.57;42.48
9839;BME280;4958;48.150;11.506;2022-10-30T11:34:31;96010.38;;;24.50;42.38
9839;BME280;4958;48.150;11.506;2022-10-30T11:36:58;96010.38;;;24.50;42.55
9839;BME280;4958;48.150;11.506;2022-10-30T11:39:26;96004.53;;;24.38;42.07
9839;BME280;4958;48.150;11.506;2022-10-30T11:41:59;96001.22;;;24.21;41.64
9839;BME280;4958;48.150;11.506;2022-10-30T11:44:30;96003.44;;;24.07;42.80
9839;BME280;4958;48.150;11.506;2022-10-30T11:46:58;95997.31;;;23.96;43.27
9839;BME280;4958;48.150;11.506;2022-10-30T11:49:31;95998.03;;;23.87;43.96
9839;BME280;4958;48.150;11.506;2022-10-30T11:52:05;96000.63;;;23.82;43.74
9839;BME280;4958;48.150;11.506;2022-10-30T11:54:35;95994.28;;;23.77;42.88
9839;BME280;4958;48.150;11.506;2022-10-30T11:57:03;95990.91;;;23.82;43.39
9839;BME280;4958;48.150;11.506;2022-10-30T11:59:30;95988.56;;;23.86;43.46
9839;BME280;4958;48.150;11.506;2022-10-30T12:01:59;95989.88;;;23.88;43.73
9839;BME280;4958;48.150;11.506;2022-10-30T12:04:27;95985.72;;;23.92;43.94
9839;BME280;4958;48.150;11.506;2022-10-30T12:07:08;95982.28;;;23.92;44.22
9839;BME280;4958;48.150;11.506;2022-10-30T12:09:44;95987.31;;;23.93;44.46
9839;BME280;4958;48.150;11.506;2022-10-30T12:12:20;95981.59;;;24.06;43.88
9839;BME280;4958;48.150;11.506;2022-10-30T12:14:48;95971.81;;;24.29;43.67
9839;BME280;4958;48.150;11.506;2022-10-30T12:17:15;95976.69;;;24.52;44.06
9839;BME280;4958;48.150;11.506;2022-10-30T12:19:46;95968.13;;;24.72;43.53
9839;BME280;4958;48.150;11.506;2022-10-30T12:22:26;95962.69;;;24.94;43.69
9839;BME280;4958;48.150;11.506;2022-10-30T12:24:53;95970.91;;;25.02;42.68
9839;BME280;4958;48.150;11.506;2022-10-30T12:27:20;95961.94;;;25.03;41.49
9839;BME280;4958;48.150;11.506;2022-10-30T12:29:58;95963.81;;;25.08;41.91
9839;BME280;4958;48.150;11.506;2022-10-30T12:32:40;95959.38;;;25.19;42.58
9839;BME280;4958;48.150;11.506;2022-10-30T12:35:19;95957.81;;;25.28;41.98
9839;BME280;4958;48.150;11.506;2022-10-30T12:37:53;95954.13;;;25.29;42.36
9839;BME280;4958;48.150;11.506;2022-10-30T12:40:24;95949.16;;;25.37;41.85
9839;BME280;4958;48.150;11.506;2022-10-30T12:42:57;95943.34;;;25.35;40.88
9839;BME280;4958;48.150;11.506;2022-10-30T12:45:30;95950.19;;;25.31;41.71
9839;BME280;4958;48.150;11.506;2022-10-30T12:48:01;95950.47;;;25.40;41.77
9839;BME280;4958;48.150;11.506;2022-10-30T12:50:38;95947.06;;;25.55;41.96
9839;BME280;4958;48.150;11.506;2022-10-30T12:53:21;95947.06;;;25.55;39.08
9839;BME280;4958;48.150;11.506;2022-10-30T12:55:54;95950.75;;;25.48;40.04
9839;BME280;4958;48.150;11.506;2022-10-30T12:58:30;95950.72;;;25.43;39.75
9839;BME280;4958;48.150;11.506;2022-10-30T13:01:00;95948.34;;;25.32;40.07
9839;BME280;4958;48.150;11.506;2022-10-30T13:03:34;95949.13;;;25.27;40.90
9839;BME280;4958;48.150;11.506;2022-10-30T13:06:06;95942.78;;;25.28;41.31
9839;BME280;4958;48.150;11.506;2022-10-30T13:08:40;95944.41;;;25.34;41.46
9839;BME280;4958;48.150;11.506;2022-10-30T13:11:15;95940.19;;;25.43;41.60
9839;BME280;4958;48.150;11.506;2022-10-30T13:13:44;95934.13;;;25.43;41.66
9839;BME280;4958;48.150;11.506;2022-10-30T13:16:15;95934.91;;;25.38;40.84
9839;BME280;4958;48.150;11.506;2022-10-30T13:18:42;95937.78;;;25.27;40.49
9839;BME280;4958;48.150;11.506;2022-10-30T13:21:17;95941.47;;;25.26;40.88